Time;durP1;ratioP1;P1;durP2;ratioP2;P2;SDS_P1;SDS_P2;PMS_P1;PMS_P2;Temp;Humidity;BMP_temperature;BMP_pressure;BME280_temperature;BME280_humidity;BME280_pressure;Samples;Min_cycle;Max_cycle;Signal;HPM_P1;HPM_P2
2022/12/21 00:01:43;;;;;;;10.97;8.57;;;12.10;64.70;;;;;;4983651;28;20240;-57
2022/12/21 00:04:10;;;;;;;13.13;9.80;;;12.00;64.80;;;;;;4983615;28;20198;-57
2022/12/21 00:06:37;;;;;;;11.17;9.30;;;12.00;65.50;;;;;;4981504;28;20194;-57
2022/12/21 00:09:05;;;;;;;8.90;8.00;;;12.10;65.60;;;;;;4984233;28;20478;-57
2022/12/21 00:11:32;;;;;;;7.23;6.37;;;12.00;65.80;;;;;;4990928;28;20422;-57
2022/12/21 00:13:59;;;;;;;7.30;6.47;;;12.00;66.00;;;;;;4988064;28;20484;-57
2022/12/21 00:16:28;;;;;;;7.80;6.40;;;12.00;66.80;;;;;;4989893;28;20505;-58
2022/12/21 00:18:55;;;;;;;8.37;6.60;;;12.10;66.90;;;;;;4984938;28;20433;-57
2022/12/21 00:21:23;;;;;;;7.87;6.77;;;12.10;67.20;;;;;;4982111;28;21092;-57
2022/12/21 00:23:51;;;;;;;7.50;6.70;;;12.10;67.50;;;;;;4980444;28;20526;-57
2022/12/21 00:26:20;;;;;;;6.97;5.80;;;12.10;67.90;;;;;;4986152;28;20825;-57
2022/12/21 00:28:47;;;;;;;8.60;5.97;;;12.20;67.60;;;;;;4987311;28;21055;-57
2022/12/21 00:31:23;;;;;;;10.07;7.00;;;12.20;67.60;;;;;;4985282;28;20508;-57
2022/12/21 00:33:49;;;;;;;7.30;6.60;;;12.30;67.60;;;;;;4983330;28;20437;-57
2022/12/21 00:36:17;;;;;;;9.67;6.40;;;12.40;67.50;;;;;;4989964;28;20517;-58
2022/12/21 00:38:44;;;;;;;11.47;7.10;;;12.40;67.50;;;;;;4983330;28;20688;-57
2022/12/21 00:41:24;;;;;;;11.17;7.93;;;12.40;67.60;;;;;;4981325;28;20997;-57
2022/12/21 00:43:52;;;;;;;10.07;7.27;;;12.60;67.10;;;;;;4982883;28;20525;-57
2022/12/21 00:46:30;;;;;;;6.90;6.10;;;12.80;66.10;;;;;;4981610;28;20454;-57
2022/12/21 00:49:00;;;;;;;8.33;6.57;;;12.90;65.80;;;;;;4981168;28;20514;-57
2022/12/21 00:51:27;;;;;;;6.43;5.67;;;12.70;66.20;;;;;;4982064;28;20472;-57
2022/12/21 00:53:55;;;;;;;7.67;6.50;;;12.70;67.00;;;;;;4985985;28;20438;-56
2022/12/21 00:56:21;;;;;;;6.33;4.90;;;12.50;68.20;;;;;;4982566;28;20470;-57
2022/12/21 00:58:47;;;;;;;6.67;5.57;;;12.30;69.50;;;;;;4981129;28;20500;-57
2022/12/21 01:01:18;;;;;;;8.60;5.40;;;12.30;70.10;;;;;;4983654;28;20493;-57
2022/12/21 01:03:44;;;;;;;6.63;6.00;;;12.30;70.60;;;;;;4983924;28;20532;-57
2022/12/21 01:06:18;;;;;;;7.27;6.17;;;12.30;70.70;;;;;;4981607;28;20568;-57
2022/12/21 01:08:44;;;;;;;6.97;5.10;;;12.40;70.20;;;;;;4982988;28;20208;-57
2022/12/21 01:11:12;;;;;;;7.53;5.50;;;12.20;70.60;;;;;;4984029;28;20452;-57
2022/12/21 01:13:39;;;;;;;7.33;5.77;;;12.00;71.20;;;;;;4985683;28;20441;-57
2022/12/21 01:16:15;;;;;;;5.83;5.20;;;12.00;71.40;;;;;;4993449;28;20845;-57
2022/12/21 01:18:41;;;;;;;6.70;5.83;;;12.10;72.10;;;;;;4983664;28;20868;-57
2022/12/21 01:21:06;;;;;;;6.87;5.60;;;12.30;71.30;;;;;;4983891;28;20482;-57
2022/12/21 01:23:32;;;;;;;8.67;5.90;;;12.40;71.20;;;;;;4986919;28;20484;-57
2022/12/21 01:25:59;;;;;;;7.70;6.70;;;12.60;70.20;;;;;;4985601;28;20195;-57
2022/12/21 01:28:24;;;;;;;8.43;6.13;;;12.50;69.90;;;;;;4992545;28;20453;-58
2022/12/21 01:30:50;;;;;;;9.10;6.20;;;12.50;69.80;;;;;;4991200;28;20960;-57
2022/12/21 01:33:18;;;;;;;6.10;5.47;;;12.30;70.50;;;;;;4991344;28;20442;-57
2022/12/21 01:35:44;;;;;;;7.10;5.40;;;12.30;71.00;;;;;;4991586;28;20281;-57
2022/12/21 01:38:11;;;;;;;7.07;4.77;;;12.20;71.00;;;;;;4991139;28;20496;-57
2022/12/21 01:40:37;;;;;;;7.30;5.10;;;12.10;71.70;;;;;;4988188;28;20626;-57
2022/12/21 01:43:35;;;;;;;5.80;4.90;;;12.20;71.60;;;;;;4991699;28;20492;-58
2022/12/21 01:46:00;;;;;;;5.50;5.00;;;12.10;72.40;;;;;;4988341;28;20492;-57
2022/12/21 01:48:26;;;;;;;5.83;5.23;;;12.20;72.50;;;;;;4990538;28;20446;-57
2022/12/21 01:51:01;;;;;;;6.60;5.77;;;12.20;73.00;;;;;;4990635;28;20199;-57
2022/12/21 01:53:32;;;;;;;7.47;5.23;;;12.40;72.70;;;;;;4989067;28;20290;-59
2022/12/21 01:56:01;;;;;;;6.00;5.30;;;12.60;71.90;;;;;;4984617;28;20539;-57
2022/12/21 01:58:29;;;;;;;6.40;5.80;;;12.80;70.40;;;;;;4984904;28;20480;-58
2022/12/21 02:00:57;;;;;;;8.10;7.07;;;12.80;71.00;;;;;;4983306;28;20489;-58
2022/12/21 02:03:25;;;;;;;8.33;7.53;;;12.80;70.70;;;;;;4985196;28;20476;-58
2022/12/21 02:06:18;;;;;;;11.33;8.50;;;12.90;69.40;;;;;;4985344;28;20508;-58
2022/12/21 02:08:43;;;;;;;10.50;8.47;;;12.80;67.90;;;;;;4991454;28;20480;-58
2022/12/21 02:11:10;;;;;;;7.07;5.83;;;12.80;68.20;;;;;;4985121;28;20445;-58
2022/12/21 02:13:36;;;;;;;7.00;6.30;;;12.70;69.50;;;;;;4990106;28;20198;-58
2022/12/21 02:16:19;;;;;;;7.27;5.40;;;12.60;70.10;;;;;;4989783;28;20548;-58
2022/12/21 02:18:54;;;;;;;6.03;4.70;;;12.60;71.10;;;;;;4989636;28;20199;-58
2022/12/21 02:21:32;;;;;;;7.20;5.20;;;12.50;73.00;;;;;;4985086;28;22512;-58
2022/12/21 02:24:03;;;;;;;5.83;5.27;;;12.60;72.80;;;;;;4983181;28;20523;-58
2022/12/21 02:27:05;;;;;;;7.83;5.67;;;12.60;73.00;;;;;;4984418;28;20449;-58
2022/12/21 02:29:44;;;;;;;6.23;5.60;;;12.80;72.00;;;;;;4985158;28;22312;-58
2022/12/21 02:32:28;;;;;;;8.50;5.63;;;12.90;71.70;;;;;;4989945;28;20964;-58
2022/12/21 02:35:08;;;;;;;6.57;5.00;;;13.00;71.70;;;;;;4990558;28;20956;-58
2022/12/21 02:37:46;;;;;;;4.53;4.13;;;13.30;71.00;;;;;;4988409;28;20446;-58
2022/12/21 02:40:14;;;;;;;6.33;4.63;;;13.40;70.60;;;;;;4986330;28;21148;-58
2022/12/21 02:46:13;;;;;;;6.10;3.80;;;13.60;70.10;;;;;;4987827;28;20468;-58
2022/12/21 02:48:57;;;;;;;6.20;3.90;;;13.50;71.40;;;;;;4987942;28;20815;-58
2022/12/21 02:51:32;;;;;;;4.50;4.10;;;13.30;72.20;;;;;;4983795;28;20888;-58
2022/12/21 02:53:58;;;;;;;4.50;3.80;;;13.40;72.30;;;;;;4990912;28;20445;-58
2022/12/21 02:56:23;;;;;;;4.00;3.60;;;13.20;72.90;;;;;;4984587;28;20444;-58
2022/12/21 02:58:49;;;;;;;6.27;3.83;;;13.20;73.30;;;;;;4986553;28;20207;-57
2022/12/21 03:01:46;;;;;;;4.77;3.43;;;13.40;72.50;;;;;;4985247;28;20234;-58
2022/12/21 03:04:47;;;;;;;3.77;3.47;;;13.60;71.70;;;;;;4984365;28;20272;-58
2022/12/21 03:07:51;;;;;;;3.93;3.57;;;13.60;71.80;;;;;;4984209;28;20802;-58
2022/12/21 03:10:34;;;;;;;4.63;4.13;;;13.70;71.10;;;;;;4923541;29;20463;-58
2022/12/21 03:13:29;;;;;;;4.87;3.67;;;13.90;70.80;;;;;;4929987;29;20559;-58
2022/12/21 03:16:15;;;;;;;4.00;3.60;;;13.70;70.80;;;;;;4974785;28;20528;-58
2022/12/21 03:18:51;;;;;;;4.43;4.03;;;13.80;70.70;;;;;;4976895;28;20488;-58
2022/12/21 03:21:31;;;;;;;4.33;3.93;;;13.90;70.60;;;;;;4991625;28;21006;-58
2022/12/21 03:24:03;;;;;;;4.57;3.97;;;13.80;71.20;;;;;;4986569;28;20441;-58
2022/12/21 03:26:34;;;;;;;7.67;4.40;;;13.90;71.20;;;;;;4984287;28;20991;-58
2022/12/21 03:29:01;;;;;;;4.67;3.30;;;13.80;71.20;;;;;;4983621;28;20860;-58
2022/12/21 03:31:35;;;;;;;3.90;3.60;;;13.90;71.00;;;;;;4983156;28;20453;-58
2022/12/21 03:34:07;;;;;;;4.67;4.17;;;13.90;71.00;;;;;;4984572;28;20455;-58
2022/12/21 03:36:41;;;;;;;8.40;4.13;;;13.70;71.30;;;;;;4987121;28;20505;-58
2022/12/21 03:39:11;;;;;;;4.33;3.77;;;13.50;72.30;;;;;;4981090;28;20446;-58
2022/12/21 03:41:45;;;;;;;4.10;3.50;;;13.70;72.30;;;;;;4984540;28;20476;-58
2022/12/21 03:44:15;;;;;;;4.10;3.70;;;13.50;72.30;;;;;;4985767;28;20445;-58
2022/12/21 03:47:04;;;;;;;4.13;3.77;;;13.30;74.30;;;;;;4984142;28;20481;-58
2022/12/21 03:49:40;;;;;;;3.97;3.67;;;13.70;72.80;;;;;;4983342;28;20515;-58
2022/12/21 03:52:10;;;;;;;4.70;3.57;;;13.80;71.90;;;;;;4986651;28;20445;-58
2022/12/21 03:55:09;;;;;;;3.37;2.80;;;13.80;72.50;;;;;;4985520;28;20542;-58
2022/12/21 03:57:35;;;;;;;5.07;3.33;;;14.00;71.40;;;;;;4983585;28;20462;-58
2022/12/21 04:00:03;;;;;;;3.93;3.60;;;13.60;72.50;;;;;;4984786;28;20489;-58
2022/12/21 04:02:44;;;;;;;3.80;3.27;;;13.70;72.80;;;;;;4980580;28;20493;-58
2022/12/21 04:05:12;;;;;;;4.37;3.97;;;13.90;72.20;;;;;;4981710;28;20805;-58
2022/12/21 04:07:39;;;;;;;4.10;2.93;;;14.10;71.80;;;;;;4986374;28;20957;-58
2022/12/21 04:10:14;;;;;;;3.80;2.80;;;14.20;71.40;;;;;;4987576;28;20503;-58
2022/12/21 04:12:40;;;;;;;3.50;3.03;;;14.20;71.50;;;;;;4986870;28;20964;-58
2022/12/21 04:15:19;;;;;;;3.40;3.10;;;14.20;71.50;;;;;;4987797;28;20438;-58
2022/12/21 04:17:47;;;;;;;5.00;3.43;;;14.30;71.40;;;;;;4986391;28;20650;-59
2022/12/21 04:20:18;;;;;;;8.53;3.07;;;14.20;71.80;;;;;;4979357;28;20481;-58
2022/12/21 04:28:29;;;;;;;3.20;2.20;;;14.10;72.50;;;;;;4961267;28;20949;-57
2022/12/21 04:30:56;;;;;;;3.63;2.43;;;14.30;71.70;;;;;;4988354;28;20863;-57
2022/12/21 04:33:23;;;;;;;3.90;3.50;;;14.30;71.70;;;;;;4984507;28;20449;-57
2022/12/21 04:38:37;;;;;;;2.67;2.37;;;14.40;71.50;;;;;;4986327;28;20457;-58
2022/12/21 04:41:03;;;;;;;2.93;2.77;;;14.50;71.10;;;;;;4989070;28;20492;-57
2022/12/21 04:43:28;;;;;;;3.73;2.60;;;14.60;70.70;;;;;;4985361;28;20765;-57
2022/12/21 04:46:02;;;;;;;5.90;2.50;;;14.60;70.70;;;;;;4986370;28;21154;-57
2022/12/21 04:48:28;;;;;;;3.90;3.30;;;14.70;70.70;;;;;;4989223;28;20868;-57
2022/12/21 04:50:54;;;;;;;2.70;2.50;;;14.70;70.20;;;;;;4986374;28;20533;-57
2022/12/21 04:53:20;;;;;;;3.30;3.00;;;14.60;70.40;;;;;;4992250;28;20556;-58
2022/12/21 04:55:45;;;;;;;4.00;2.90;;;14.70;70.10;;;;;;4992386;28;20199;-57
2022/12/21 04:58:11;;;;;;;4.00;2.70;;;14.60;70.40;;;;;;4988568;28;20681;-58
2022/12/21 05:00:37;;;;;;;3.43;2.83;;;14.60;70.30;;;;;;4984393;28;20241;-58
2022/12/21 05:03:03;;;;;;;3.80;2.40;;;14.70;70.30;;;;;;4985792;28;20441;-57
2022/12/21 05:05:29;;;;;;;2.87;2.50;;;14.70;70.30;;;;;;4993366;28;20209;-58
2022/12/21 05:07:54;;;;;;;2.83;2.60;;;14.70;70.10;;;;;;5002892;28;20214;-58
2022/12/21 05:10:20;;;;;;;5.50;2.47;;;14.70;69.90;;;;;;4986033;28;20446;-57
2022/12/21 05:12:46;;;;;;;2.63;2.43;;;14.70;70.20;;;;;;4987626;28;20201;-58
2022/12/21 05:15:13;;;;;;;4.60;2.60;;;14.80;70.00;;;;;;4995216;28;20194;-58
2022/12/21 05:17:39;;;;;;;2.70;2.43;;;14.80;70.10;;;;;;4993424;28;20242;-57
2022/12/21 05:20:05;;;;;;;3.23;2.30;;;14.80;70.20;;;;;;5000644;28;20520;-57
2022/12/21 05:22:31;;;;;;;3.00;2.70;;;14.90;70.00;;;;;;4990346;28;20519;-58
2022/12/21 05:24:56;;;;;;;3.67;2.87;;;14.90;70.10;;;;;;4993153;28;20937;-58
2022/12/21 05:27:22;;;;;;;4.00;2.80;;;14.80;69.40;;;;;;4987557;28;20206;-57
2022/12/21 05:29:48;;;;;;;2.60;2.40;;;14.90;69.70;;;;;;4986960;28;20665;-57
2022/12/21 05:32:14;;;;;;;3.03;2.33;;;15.00;69.10;;;;;;4983387;28;20221;-57
2022/12/21 05:34:39;;;;;;;2.70;2.30;;;15.00;69.10;;;;;;4986192;28;20209;-57
2022/12/21 05:37:05;;;;;;;3.60;2.50;;;14.90;68.70;;;;;;4985984;28;20446;-57
2022/12/21 05:39:31;;;;;;;7.93;2.60;;;14.70;69.70;;;;;;4984925;28;20840;-58
2022/12/21 05:41:56;;;;;;;3.20;2.70;;;14.70;69.50;;;;;;4983760;28;20456;-58
2022/12/21 05:44:22;;;;;;;2.73;2.33;;;14.60;70.10;;;;;;4985872;28;20241;-57
2022/12/21 05:46:48;;;;;;;4.63;2.90;;;14.80;69.80;;;;;;4987975;28;20186;-58
2022/12/21 05:49:13;;;;;;;4.77;3.07;;;14.80;69.70;;;;;;4992108;28;20589;-57
2022/12/21 05:51:39;;;;;;;7.73;3.97;;;14.90;69.30;;;;;;4989544;28;20216;-58
2022/12/21 05:54:04;;;;;;;3.00;2.80;;;15.00;69.30;;;;;;4987944;28;20199;-58
2022/12/21 05:56:30;;;;;;;3.30;2.43;;;14.90;69.50;;;;;;4983774;28;20683;-58
2022/12/21 05:58:55;;;;;;;4.97;2.70;;;14.90;69.50;;;;;;4983101;28;20199;-58
2022/12/21 06:01:21;;;;;;;2.60;2.27;;;14.80;70.20;;;;;;4985421;28;20638;-58
2022/12/21 06:03:48;;;;;;;2.50;2.30;;;14.90;69.70;;;;;;4990228;28;20190;-57
2022/12/21 06:06:15;;;;;;;3.60;2.40;;;14.80;70.20;;;;;;4987726;28;20634;-58
2022/12/21 06:08:41;;;;;;;3.03;2.70;;;14.70;71.10;;;;;;4988639;28;20537;-57
2022/12/21 06:11:12;;;;;;;3.23;2.57;;;14.70;71.30;;;;;;4985958;28;20456;-58
2022/12/21 06:13:38;;;;;;;5.33;2.10;;;14.70;71.40;;;;;;4988178;28;20528;-58
2022/12/21 06:16:06;;;;;;;3.33;2.10;;;14.70;71.50;;;;;;4987659;28;20470;-58
2022/12/21 06:18:31;;;;;;;3.50;2.57;;;14.60;71.10;;;;;;4990508;28;20460;-58
2022/12/21 06:20:57;;;;;;;2.83;2.63;;;14.80;71.10;;;;;;4986082;28;20880;-57
2022/12/21 06:23:23;;;;;;;2.30;2.10;;;14.90;70.80;;;;;;4985567;28;20218;-58
2022/12/21 06:25:48;;;;;;;2.77;2.50;;;14.70;71.30;;;;;;4985045;28;20233;-58
2022/12/21 06:28:14;;;;;;;5.30;2.70;;;14.60;71.40;;;;;;4986150;28;20198;-57
2022/12/21 06:30:39;;;;;;;6.07;2.63;;;14.60;72.00;;;;;;4984114;28;20210;-58
2022/12/21 06:33:05;;;;;;;3.07;2.37;;;14.80;71.70;;;;;;4983533;28;20195;-58
2022/12/21 06:35:32;;;;;;;6.90;2.50;;;14.90;71.10;;;;;;4985201;28;20194;-58
2022/12/21 06:37:58;;;;;;;4.20;2.90;;;14.90;70.30;;;;;;4986338;28;20281;-58
2022/12/21 06:40:23;;;;;;;3.50;3.07;;;15.10;69.90;;;;;;4983655;28;20504;-58
2022/12/21 06:42:49;;;;;;;4.13;2.17;;;15.20;69.10;;;;;;4987039;28;20195;-59
2022/12/21 06:45:14;;;;;;;3.53;2.00;;;15.30;68.50;;;;;;4988157;28;20186;-58
2022/12/21 06:47:40;;;;;;;5.13;2.40;;;15.30;68.10;;;;;;4990972;28;20556;-58
2022/12/21 06:50:06;;;;;;;2.90;2.60;;;15.30;68.20;;;;;;4992425;28;20206;-58
2022/12/21 06:52:32;;;;;;;2.33;2.13;;;15.30;68.10;;;;;;4990366;28;20198;-58
2022/12/21 06:54:58;;;;;;;2.53;2.00;;;15.30;68.20;;;;;;4992465;28;20442;-58
2022/12/21 06:57:23;;;;;;;2.60;2.30;;;15.40;68.00;;;;;;4989614;28;20246;-60
2022/12/21 06:59:49;;;;;;;5.43;2.03;;;15.30;68.00;;;;;;4992475;28;20237;-58
2022/12/21 07:02:14;;;;;;;2.70;2.20;;;15.30;68.30;;;;;;4988271;28;20195;-58
2022/12/21 07:04:40;;;;;;;2.33;2.20;;;15.30;68.30;;;;;;4992671;28;20194;-58
2022/12/21 07:07:05;;;;;;;2.90;2.47;;;15.30;68.40;;;;;;4991647;28;20231;-58
2022/12/21 07:09:31;;;;;;;3.00;2.07;;;15.30;68.90;;;;;;4989902;28;20244;-58
2022/12/21 07:11:56;;;;;;;2.33;2.13;;;15.40;68.60;;;;;;4988892;28;20214;-58
2022/12/21 07:14:22;;;;;;;1.87;1.73;;;15.30;68.70;;;;;;4987722;28;20194;-58
2022/12/21 07:16:48;;;;;;;2.70;2.40;;;15.10;69.20;;;;;;4989668;28;20248;-58
2022/12/21 07:19:14;;;;;;;2.20;2.00;;;15.10;69.70;;;;;;4987699;28;20274;-58
2022/12/21 07:21:39;;;;;;;2.40;2.20;;;15.10;69.90;;;;;;4988546;28;20489;-58
2022/12/21 07:24:05;;;;;;;2.37;2.07;;;15.20;69.40;;;;;;4985252;28;20202;-58
2022/12/21 07:26:31;;;;;;;4.27;2.30;;;15.20;69.20;;;;;;4984406;28;20202;-58
2022/12/21 07:28:57;;;;;;;2.43;2.10;;;15.20;69.30;;;;;;4987683;28;20453;-58
2022/12/21 07:31:25;;;;;;;4.00;2.20;;;15.30;69.50;;;;;;4985369;28;21792;-58
2022/12/21 07:33:51;;;;;;;2.93;2.07;;;15.20;69.20;;;;;;4988793;28;20536;-57
2022/12/21 07:36:17;;;;;;;4.37;2.13;;;15.10;70.10;;;;;;4987107;28;20450;-58
2022/12/21 07:38:43;;;;;;;3.60;2.47;;;15.00;70.30;;;;;;4988178;28;20535;-57
2022/12/21 07:41:12;;;;;;;3.37;2.20;;;15.00;71.30;;;;;;4988801;28;20995;-57
2022/12/21 07:43:37;;;;;;;2.33;2.13;;;15.10;70.30;;;;;;4987345;28;20198;-57
2022/12/21 07:46:04;;;;;;;3.50;2.23;;;15.00;70.70;;;;;;4989102;28;20453;-57
2022/12/21 07:48:31;;;;;;;2.53;2.33;;;15.00;70.80;;;;;;4986058;28;20450;-58
2022/12/21 07:50:57;;;;;;;3.73;2.23;;;15.00;71.00;;;;;;4990995;28;20456;-57
2022/12/21 07:53:22;;;;;;;4.00;2.60;;;14.90;71.00;;;;;;4992197;28;20414;-57
2022/12/21 07:55:48;;;;;;;4.33;2.20;;;14.80;71.60;;;;;;4992718;28;20429;-57
2022/12/21 07:58:14;;;;;;;5.50;2.27;;;14.70;72.20;;;;;;4992435;28;20199;-58
2022/12/21 08:00:40;;;;;;;3.20;2.37;;;14.70;72.10;;;;;;4992134;28;20698;-58
2022/12/21 08:03:06;;;;;;;3.50;2.43;;;14.80;72.00;;;;;;4992489;28;20571;-57
2022/12/21 08:05:32;;;;;;;2.70;2.43;;;14.80;71.80;;;;;;4992398;28;20198;-57
2022/12/21 08:07:58;;;;;;;5.80;2.73;;;14.90;72.00;;;;;;4992565;28;20516;-57
2022/12/21 08:10:25;;;;;;;2.53;2.33;;;14.90;71.80;;;;;;4991960;28;20453;-57
2022/12/21 08:12:50;;;;;;;3.80;2.50;;;14.70;72.20;;;;;;4990926;28;20425;-57
2022/12/21 08:15:16;;;;;;;3.13;2.17;;;14.70;73.00;;;;;;4992109;28;20432;-58
2022/12/21 08:17:41;;;;;;;5.10;2.53;;;14.70;72.90;;;;;;4992200;28;20231;-57
2022/12/21 08:20:08;;;;;;;2.40;2.20;;;14.80;72.70;;;;;;5004956;28;20276;-57
2022/12/21 08:22:34;;;;;;;2.90;2.00;;;14.90;72.40;;;;;;4992133;28;20285;-57
2022/12/21 08:24:59;;;;;;;2.50;2.30;;;14.90;72.80;;;;;;4981470;28;20517;-57
2022/12/21 08:27:25;;;;;;;2.20;1.83;;;14.80;72.80;;;;;;4992269;28;20197;-58
2022/12/21 08:29:51;;;;;;;3.37;2.57;;;14.90;72.70;;;;;;4991507;28;20887;-58
2022/12/21 08:32:16;;;;;;;4.10;2.10;;;14.90;72.50;;;;;;4992036;28;20277;-58
2022/12/21 08:34:42;;;;;;;4.30;2.93;;;14.70;73.50;;;;;;4991853;28;20201;-58
2022/12/21 08:37:07;;;;;;;2.80;2.27;;;14.60;74.30;;;;;;4992127;28;20202;-58
2022/12/21 08:39:33;;;;;;;3.40;3.10;;;14.70;74.20;;;;;;4989722;28;20206;-57
2022/12/21 08:41:58;;;;;;;3.90;2.13;;;14.70;74.00;;;;;;4992090;28;20195;-58
2022/12/21 08:44:24;;;;;;;4.53;2.70;;;14.50;74.50;;;;;;4991825;28;20649;-58
2022/12/21 08:46:49;;;;;;;6.57;3.23;;;14.50;75.00;;;;;;4991873;28;20194;-58
2022/12/21 08:49:15;;;;;;;3.10;2.90;;;14.50;75.50;;;;;;4991354;28;20198;-58
2022/12/21 08:51:41;;;;;;;2.83;2.30;;;14.60;75.00;;;;;;4992018;28;20671;-58
2022/12/21 08:54:07;;;;;;;4.17;2.50;;;14.70;74.40;;;;;;4991841;28;20693;-58
2022/12/21 08:56:34;;;;;;;2.90;2.50;;;14.80;74.10;;;;;;4991871;28;20289;-57
2022/12/21 08:59:05;;;;;;;3.90;2.33;;;14.80;73.90;;;;;;4992040;28;20877;-58
2022/12/21 09:01:31;;;;;;;3.13;2.73;;;14.50;74.90;;;;;;4991682;28;20592;-58
2022/12/21 09:03:57;;;;;;;3.10;2.67;;;14.60;75.10;;;;;;4991678;28;20824;-57
2022/12/21 09:06:22;;;;;;;4.47;2.77;;;14.80;74.20;;;;;;4990199;28;20464;-57
2022/12/21 09:08:49;;;;;;;2.87;2.67;;;14.80;74.10;;;;;;4991657;28;20558;-57
2022/12/21 09:11:16;;;;;;;4.47;2.80;;;14.70;74.10;;;;;;4991315;28;20194;-58
2022/12/21 09:13:42;;;;;;;3.23;2.93;;;14.80;74.10;;;;;;4972290;28;20791;-57
2022/12/21 09:16:16;;;;;;;5.70;3.17;;;14.70;73.40;;;;;;4972091;28;20463;-57
2022/12/21 09:18:43;;;;;;;4.17;3.20;;;14.70;74.40;;;;;;4986998;28;20200;-58
2022/12/21 09:21:09;;;;;;;3.80;3.20;;;14.80;73.90;;;;;;4996659;28;20490;-58
2022/12/21 09:23:35;;;;;;;6.30;2.87;;;14.70;74.50;;;;;;4985581;28;20941;-57
2022/12/21 09:26:02;;;;;;;3.43;3.13;;;14.80;73.70;;;;;;4987512;28;20442;-58
2022/12/21 09:28:28;;;;;;;6.43;3.20;;;14.80;73.50;;;;;;4991550;28;20511;-57
2022/12/21 09:30:54;;;;;;;2.93;2.63;;;14.80;73.40;;;;;;4991226;28;20457;-58
2022/12/21 09:33:23;;;;;;;3.20;2.90;;;14.70;73.60;;;;;;4990116;28;20194;-58
2022/12/21 09:35:51;;;;;;;3.37;2.90;;;14.50;74.60;;;;;;4991541;28;20202;-58
2022/12/21 09:38:17;;;;;;;5.27;3.50;;;14.50;74.90;;;;;;4994934;28;20533;-57
2022/12/21 09:40:42;;;;;;;3.80;2.67;;;14.40;75.20;;;;;;4994582;28;21051;-57
2022/12/21 09:43:36;;;;;;;3.73;2.73;;;14.50;74.80;;;;;;4995355;28;20618;-57
2022/12/21 09:46:08;;;;;;;3.20;2.83;;;14.60;74.20;;;;;;4995043;28;20533;-58
2022/12/21 09:48:55;;;;;;;3.33;2.50;;;14.80;73.40;;;;;;4995163;28;20449;-57
2022/12/21 09:51:29;;;;;;;2.60;2.30;;;14.90;72.70;;;;;;4994664;28;20436;-57
2022/12/21 09:54:06;;;;;;;3.10;2.80;;;14.90;72.60;;;;;;4994852;28;20547;-58
2022/12/21 09:56:32;;;;;;;4.10;2.33;;;14.60;72.90;;;;;;4994881;28;20430;-57
2022/12/21 09:59:02;;;;;;;2.90;2.27;;;14.60;73.80;;;;;;4992830;28;20430;-58
2022/12/21 10:01:28;;;;;;;3.83;2.40;;;14.70;73.50;;;;;;4994691;28;20830;-57
2022/12/21 10:04:09;;;;;;;5.07;2.90;;;14.80;73.50;;;;;;4994428;28;20445;-58
2022/12/21 10:06:53;;;;;;;4.13;2.77;;;14.70;74.30;;;;;;4994347;28;20202;-58
2022/12/21 10:09:40;;;;;;;9.43;3.87;;;14.60;74.80;;;;;;4994182;28;20426;-58
2022/12/21 10:12:11;;;;;;;4.20;3.13;;;14.60;75.00;;;;;;4994282;28;20433;-57
2022/12/21 10:15:02;;;;;;;6.17;2.60;;;14.70;75.10;;;;;;4994498;28;20436;-58
2022/12/21 10:18:05;;;;;;;3.40;3.10;;;14.90;73.80;;;;;;4994309;28;20470;-58
2022/12/21 10:20:56;;;;;;;5.07;2.30;;;15.00;73.80;;;;;;4971295;28;20501;-57
2022/12/21 10:23:29;;;;;;;2.80;2.40;;;14.90;73.70;;;;;;4994141;28;20858;-57
2022/12/21 10:25:57;;;;;;;2.77;2.57;;;14.70;74.10;;;;;;4992418;28;20941;-57
2022/12/21 10:28:35;;;;;;;2.50;2.30;;;14.70;74.50;;;;;;4994165;28;20524;-57
2022/12/21 10:31:03;;;;;;;2.47;2.27;;;14.70;74.20;;;;;;4993662;28;20533;-57
2022/12/21 10:33:30;;;;;;;4.77;3.20;;;14.90;73.70;;;;;;4994053;28;20475;-57
2022/12/21 10:36:00;;;;;;;5.27;2.87;;;15.10;73.20;;;;;;4993833;28;20434;-58
2022/12/21 10:38:31;;;;;;;3.40;2.60;;;15.30;72.60;;;;;;4993861;28;20433;-57
2022/12/21 10:40:56;;;;;;;5.40;3.40;;;15.40;71.90;;;;;;4993270;28;21008;-57
2022/12/21 10:43:22;;;;;;;3.47;3.17;;;15.60;72.20;;;;;;4994096;28;20426;-57
2022/12/21 10:45:49;;;;;;;4.00;2.60;;;15.50;71.20;;;;;;4993876;28;20199;-57
2022/12/21 10:48:15;;;;;;;3.90;2.83;;;15.40;70.70;;;;;;4993280;28;20453;-57
2022/12/21 10:50:44;;;;;;;8.67;2.50;;;15.40;70.20;;;;;;4993513;28;20437;-57
2022/12/21 10:53:18;;;;;;;3.27;2.97;;;15.50;69.80;;;;;;4992534;28;20898;-57
2022/12/21 10:55:44;;;;;;;3.20;2.27;;;15.50;69.40;;;;;;4993539;28;20442;-56
2022/12/21 10:58:20;;;;;;;5.67;2.97;;;15.30;68.80;;;;;;4993703;28;20512;-57
2022/12/21 11:01:03;;;;;;;4.10;2.67;;;15.30;69.30;;;;;;4993208;28;20535;-57
2022/12/21 11:03:36;;;;;;;2.80;2.20;;;15.30;70.00;;;;;;4993333;28;21044;-57
2022/12/21 11:06:19;;;;;;;2.40;2.20;;;15.50;69.80;;;;;;4993580;28;20874;-57
2022/12/21 11:08:47;;;;;;;2.60;2.40;;;15.60;69.90;;;;;;4993310;28;20450;-57
2022/12/21 11:11:31;;;;;;;4.27;2.60;;;15.60;69.80;;;;;;4992949;28;20488;-57
2022/12/21 11:13:59;;;;;;;3.13;2.77;;;15.60;69.70;;;;;;4993213;28;20575;-56
2022/12/21 11:16:29;;;;;;;4.50;2.50;;;15.70;69.90;;;;;;4993117;28;20553;-57
2022/12/21 11:18:59;;;;;;;3.10;2.80;;;15.70;69.30;;;;;;4991176;28;20454;-56
2022/12/21 11:21:33;;;;;;;5.33;2.50;;;15.80;69.30;;;;;;4993093;28;20849;-57
2022/12/21 11:24:11;;;;;;;3.10;2.90;;;15.90;68.70;;;;;;4993074;28;20444;-57
2022/12/21 11:26:42;;;;;;;6.20;3.40;;;16.00;68.70;;;;;;4992639;28;20434;-57
2022/12/21 11:29:17;;;;;;;2.60;2.40;;;16.00;69.30;;;;;;4992716;28;20484;-57
2022/12/21 11:31:43;;;;;;;4.43;2.50;;;15.90;68.90;;;;;;4993080;28;20425;-57
2022/12/21 11:34:30;;;;;;;2.53;2.17;;;15.80;68.20;;;;;;4993016;28;20525;-56
2022/12/21 11:37:03;;;;;;;2.67;2.47;;;15.80;68.60;;;;;;4993033;28;20433;-56
2022/12/21 11:39:29;;;;;;;3.77;2.70;;;15.90;68.60;;;;;;4992327;28;20918;-57
2022/12/21 11:41:55;;;;;;;3.20;2.67;;;15.80;69.30;;;;;;4992929;28;20452;-56
2022/12/21 11:44:29;;;;;;;2.97;2.60;;;15.60;68.60;;;;;;4992708;28;20426;-57
2022/12/21 11:47:23;;;;;;;3.27;2.97;;;15.40;69.70;;;;;;4991682;28;20194;-57
2022/12/21 11:50:11;;;;;;;2.47;2.27;;;15.60;69.40;;;;;;4992323;28;20839;-57
2022/12/21 11:52:39;;;;;;;3.03;2.73;;;15.80;69.00;;;;;;4992753;28;20476;-57
2022/12/21 11:55:24;;;;;;;2.20;2.00;;;15.90;68.40;;;;;;4992589;28;20437;-57
2022/12/21 11:58:14;;;;;;;2.93;2.20;;;16.00;68.20;;;;;;4992797;28;20434;-57
2022/12/21 12:01:14;;;;;;;4.20;2.60;;;16.00;67.70;;;;;;4991486;28;20881;-57
2022/12/21 12:04:12;;;;;;;5.60;2.50;;;16.20;67.80;;;;;;4992438;28;20459;-57
2022/12/21 12:06:55;;;;;;;3.83;2.70;;;16.30;67.00;;;;;;4973285;28;20508;-58
2022/12/21 12:09:39;;;;;;;3.90;3.40;;;16.20;67.70;;;;;;4992021;28;20430;-57
2022/12/21 12:12:26;;;;;;;3.37;3.00;;;16.30;67.70;;;;;;4990648;28;20953;-57
2022/12/21 12:15:09;;;;;;;3.07;2.17;;;16.40;67.00;;;;;;4992634;28;20441;-57
2022/12/21 12:17:47;;;;;;;2.70;2.47;;;16.40;66.70;;;;;;4992101;28;20474;-57
2022/12/21 12:20:24;;;;;;;3.40;2.93;;;16.40;66.60;;;;;;5004785;28;20473;-57
2022/12/21 12:22:53;;;;;;;3.17;2.87;;;16.40;67.00;;;;;;4992360;28;20525;-57
2022/12/21 12:25:46;;;;;;;5.37;2.80;;;16.60;67.10;;;;;;4982483;28;20854;-57
2022/12/21 12:28:21;;;;;;;3.63;2.80;;;16.80;66.90;;;;;;4992158;28;20972;-57
2022/12/21 12:31:08;;;;;;;2.40;2.20;;;16.90;66.80;;;;;;4991555;28;20480;-57
2022/12/21 12:33:52;;;;;;;2.37;2.20;;;16.90;66.70;;;;;;4992122;28;20490;-57
2022/12/21 12:36:39;;;;;;;3.70;2.37;;;17.00;66.70;;;;;;4991902;28;20953;-57
2022/12/21 12:39:29;;;;;;;2.03;1.80;;;17.00;66.40;;;;;;4989779;28;20437;-57
2022/12/21 12:42:16;;;;;;;5.10;2.63;;;16.90;66.40;;;;;;4992031;28;20837;-57
2022/12/21 12:45:00;;;;;;;2.17;1.97;;;16.80;66.50;;;;;;4979420;28;20481;-58
2022/12/21 12:47:31;;;;;;;3.10;2.43;;;16.80;66.60;;;;;;4991781;28;20437;-57
2022/12/21 12:50:12;;;;;;;2.73;2.50;;;16.90;66.60;;;;;;4991567;28;20484;-57
2022/12/21 12:52:53;;;;;;;2.60;2.00;;;16.90;65.80;;;;;;4992090;28;20432;-57
2022/12/21 12:55:27;;;;;;;4.20;2.90;;;16.90;65.90;;;;;;4991806;28;20754;-58
2022/12/21 12:58:09;;;;;;;4.20;2.47;;;17.00;65.80;;;;;;4992003;28;20449;-58
2022/12/21 13:01:01;;;;;;;2.63;2.43;;;16.80;65.60;;;;;;4991167;28;21027;-57
2022/12/21 13:03:58;;;;;;;2.80;2.53;;;16.90;66.00;;;;;;4991357;28;20417;-57
2022/12/21 13:06:44;;;;;;;2.77;2.10;;;17.00;65.50;;;;;;4990627;28;20438;-57
2022/12/21 13:09:57;;;;;;;2.50;2.20;;;17.00;65.30;;;;;;4991679;28;20561;-57
2022/12/21 13:12:57;;;;;;;1.93;1.80;;;16.70;65.90;;;;;;4954425;28;20813;-58
2022/12/21 13:15:44;;;;;;;1.90;1.70;;;16.80;66.40;;;;;;4995519;28;20437;-57
2022/12/21 13:18:17;;;;;;;1.83;1.63;;;16.80;66.40;;;;;;4998628;28;20523;-57
2022/12/21 13:20:46;;;;;;;6.80;2.20;;;16.80;66.00;;;;;;5004160;28;20485;-57